Strona główna
METAR-TAF:

METAR-TAF

Lotnisko :

Rarotonga, Wyspy Cooka

Port lotniczy Rarotonga

Szerokość geograficzna: 21-12S, Długość geograficzna: 159-49W, wysokość: 7 m

Aktualna obserwacja pogody

Raport powstał 1 godzina i 16 minut temu, godzina 18:00 UTC
Wiatr 10 kt od zachodnio-południowy zachód
Temperatura 25°C
Wilgotność 79%
Ciśnienie 1009 hPa
Widzialność 10 km lub więcej
Rozproszone chmury na wysokości 2300 ft
Przerywane chmury na wysokości 10000 ft

METAR: NCRG 261800Z 25010KT 9999 SCT023 BKN100 25/21 Q1009

czas: 09:16 (19:16 UTC)

Prognoza

Raport powstał 2 godziny i 5 minut temu, godzina 17:11 UTC
Prognoza ważna od 26 godzina 18 UTC do 27 godzina 18 UTC
Wiatr 10 kt od zachodnio-południowy zachód
Widzialność 10 km lub więcej
Rozproszone chmury na wysokości 2000 ft

TAF: NCRG 261711Z 2618/2718 25010KT 9999 SCT020

Obserwacja i prognoza pogody dla ponad 4000 lotnisk (raport METAR i TAF).

Dostępne stacje oznaczono żółtymi i czerwonymi punktami na mapie.

Najedź kursorem aby zobaczyć nazwę stacji.

Kliknij aby zobaczyć obserwacje i prognozy pogody.

Aby zmienić mapę: kliknij na zielony przycisk z czarnym krzyżykiem, aby powiększyć; na zielony przycisk z myślnikiem, aby pomniejszyć; na zielone strzałki, aby przejść do map sąsiednich.


METAR-TAF: